createdAt,value
2023-02-19T00:00:02.561Z,100084.94
2023-02-19T00:03:05.574Z,100086.06
2023-02-19T00:06:05.639Z,100090.25
2023-02-19T00:09:05.550Z,100097.81
2023-02-19T00:12:05.571Z,100101.59
2023-02-19T00:15:05.581Z,100103.03
2023-02-19T00:18:05.593Z,100107.47
2023-02-19T00:21:05.548Z,100122.03
2023-02-19T00:24:11.573Z,100130.97
2023-02-19T00:27:11.541Z,100123.88
2023-02-19T00:30:11.707Z,100116.62
2023-02-19T00:33:11.543Z,100125.47
2023-02-19T00:36:18.551Z,100115.63
2023-02-19T00:39:19.592Z,100119.31
2023-02-19T00:42:19.590Z,100128.06
2023-02-19T00:45:19.562Z,100129.38
2023-02-19T00:48:20.558Z,100129.09
2023-02-19T00:51:20.614Z,100129.34
2023-02-19T00:54:20.602Z,100131.78
2023-02-19T00:57:20.640Z,100126.84
2023-02-19T01:00:20.553Z,100126.72
2023-02-19T01:03:20.626Z,100135.16
2023-02-19T01:06:21.571Z,100124.84
2023-02-19T01:09:21.582Z,100127.28
2023-02-19T01:12:21.601Z,100130.91
2023-02-19T01:15:21.552Z,100128.09
2023-02-19T01:18:21.557Z,100125.53
2023-02-19T01:21:23.576Z,100123.97
2023-02-19T01:24:23.582Z,100118.09
2023-02-19T01:27:23.567Z,100126.09
2023-02-19T01:30:23.635Z,100124.47
2023-02-19T01:33:23.589Z,100127.19
2023-02-19T01:36:23.585Z,100133.84
2023-02-19T01:39:24.554Z,100142.00
2023-02-19T01:42:27.567Z,100134.75
2023-02-19T01:45:36.554Z,100136.25
2023-02-19T01:48:37.572Z,100140.72
2023-02-19T01:51:37.565Z,100141.69
2023-02-19T01:54:39.566Z,100146.91
2023-02-19T01:57:42.604Z,100152.66
2023-02-19T02:00:42.623Z,100142.88
2023-02-19T02:03:42.601Z,100150.03
2023-02-19T02:06:49.588Z,100143.16
2023-02-19T02:10:07.607Z,100120.09
2023-02-19T02:13:11.569Z,100150.31
2023-02-19T02:16:20.695Z,100154.44
2023-02-19T02:19:42.549Z,100146.44
2023-02-19T02:22:45.613Z,100143.53
2023-02-19T02:25:57.555Z,100132.25
2023-02-19T02:29:32.602Z,100132.97
2023-02-19T02:32:39.537Z,100141.53
2023-02-19T02:35:43.567Z,100142.13
2023-02-19T02:38:45.597Z,100122.50
2023-02-19T02:41:46.589Z,100136.88
2023-02-19T02:45:10.594Z,100127.16
2023-02-19T02:48:10.570Z,100134.47
2023-02-19T02:51:25.557Z,100129.97
2023-02-19T02:54:50.580Z,100160.56
2023-02-19T02:57:50.562Z,100165.59
2023-02-19T03:01:09.966Z,100168.78
2023-02-19T03:04:18.613Z,100170.50
2023-02-19T03:07:21.601Z,100164.72
2023-02-19T03:10:24.596Z,100152.59
2023-02-19T03:13:47.606Z,100180.38
2023-02-19T03:17:07.606Z,100188.09
2023-02-19T03:20:10.611Z,100194.72
2023-02-19T03:23:10.575Z,100193.72
2023-02-19T03:26:10.561Z,100199.72
2023-02-19T03:29:29.561Z,100202.94
2023-02-19T03:32:38.593Z,100206.31
2023-02-19T03:35:41.551Z,100207.38
2023-02-19T03:38:59.579Z,100213.44
2023-02-19T03:42:02.589Z,100215.22
2023-02-19T03:45:16.653Z,100214.53
2023-02-19T03:48:13.568Z,100201.28
2023-02-19T03:50:57.670Z,100213.81
2023-02-19T03:53:58.568Z,100209.56
2023-02-19T03:56:52.665Z,100201.34
2023-02-19T03:59:57.602Z,100188.59
2023-02-19T04:02:49.599Z,100181.50
2023-02-19T04:05:52.613Z,100183.13
2023-02-19T04:08:53.602Z,100175.78
2023-02-19T04:11:54.606Z,100157.47
2023-02-19T04:15:00.581Z,100167.53
2023-02-19T04:18:05.599Z,100135.56
2023-02-19T04:21:05.584Z,100157.47
2023-02-19T04:24:05.573Z,100169.50
2023-02-19T04:27:06.604Z,100166.44
2023-02-19T04:30:06.612Z,100163.81
2023-02-19T04:33:06.554Z,100170.44
2023-02-19T04:36:06.585Z,100159.75
2023-02-19T04:39:06.611Z,100170.34
2023-02-19T04:42:06.589Z,100166.22
2023-02-19T04:45:06.570Z,100175.00
2023-02-19T04:48:06.606Z,100169.31
2023-02-19T04:51:06.577Z,100171.78
2023-02-19T04:54:06.696Z,100179.75
2023-02-19T04:57:06.579Z,100183.06
2023-02-19T05:00:06.543Z,100177.62
2023-02-19T05:03:06.548Z,100184.25
2023-02-19T05:06:06.548Z,100176.41
2023-02-19T05:09:06.591Z,100172.09
2023-02-19T05:12:06.602Z,100154.75
2023-02-19T05:15:06.547Z,100167.41
2023-02-19T05:18:06.540Z,100165.91
2023-02-19T05:21:06.549Z,100167.50
2023-02-19T05:24:06.599Z,100167.56
2023-02-19T05:27:06.565Z,100170.44
2023-02-19T05:30:06.575Z,100167.16
2023-02-19T05:33:06.588Z,100170.44
2023-02-19T05:36:08.591Z,100191.16
2023-02-19T05:39:09.544Z,100182.25
2023-02-19T05:42:09.561Z,100173.88
2023-02-19T05:45:09.567Z,100174.97
2023-02-19T05:48:09.542Z,100159.13
2023-02-19T05:51:15.555Z,100184.69
2023-02-19T05:54:15.546Z,100181.44
2023-02-19T05:57:15.598Z,100167.66
2023-02-19T06:00:15.554Z,100156.84
2023-02-19T06:03:15.615Z,100160.03
2023-02-19T06:06:17.556Z,100165.31
2023-02-19T06:09:18.561Z,100158.53
2023-02-19T06:12:18.574Z,100159.28
2023-02-19T06:15:19.613Z,100164.88
2023-02-19T06:18:19.592Z,100141.16
2023-02-19T06:21:20.578Z,100157.16
2023-02-19T06:24:21.556Z,100148.53
2023-02-19T06:27:22.539Z,100150.47
2023-02-19T06:30:22.606Z,100151.81
2023-02-19T06:33:22.585Z,100163.91
2023-02-19T06:36:27.601Z,100167.34
2023-02-19T06:39:27.611Z,100160.34
2023-02-19T06:42:27.610Z,100155.81
2023-02-19T06:45:27.536Z,100154.81
2023-02-19T06:48:27.568Z,100151.12
2023-02-19T06:51:30.646Z,100151.88
2023-02-19T06:54:32.601Z,100157.78
2023-02-19T06:57:32.560Z,100166.44
2023-02-19T07:00:32.605Z,100162.87
2023-02-19T07:03:32.567Z,100165.97
2023-02-19T07:06:33.580Z,100164.06
2023-02-19T07:09:34.601Z,100151.44
2023-02-19T07:12:34.548Z,100158.28
2023-02-19T07:15:34.562Z,100148.38
2023-02-19T07:18:34.581Z,100139.50
2023-02-19T07:21:34.593Z,100135.59
2023-02-19T07:24:34.583Z,100130.69
2023-02-19T07:27:34.592Z,100122.59
2023-02-19T07:30:34.578Z,100110.97
2023-02-19T07:33:34.562Z,100121.87
2023-02-19T07:36:28.630Z,100123.16
2023-02-19T07:39:28.591Z,100131.47
2023-02-19T07:42:28.554Z,100114.34
2023-02-19T07:45:28.550Z,100112.44
2023-02-19T07:48:28.611Z,100106.50
2023-02-19T07:51:31.599Z,100117.09
2023-02-19T07:54:31.564Z,100118.56
2023-02-19T07:57:31.598Z,100117.88
2023-02-19T08:00:32.563Z,100115.78
2023-02-19T08:03:32.578Z,100104.78
2023-02-19T08:06:32.572Z,100113.88
2023-02-19T08:09:32.564Z,100124.44
2023-02-19T08:12:51.597Z,100110.78
2023-02-19T08:15:51.538Z,100125.63
2023-02-19T08:18:51.606Z,100130.75
2023-02-19T08:21:51.572Z,100095.47
2023-02-19T08:24:51.560Z,100122.22
2023-02-19T08:27:52.557Z,100118.25
2023-02-19T08:30:53.602Z,100112.81
2023-02-19T08:33:53.603Z,100114.00
2023-02-19T08:36:53.589Z,100100.66
2023-02-19T08:39:53.589Z,100110.59
2023-02-19T08:42:53.568Z,100102.75
2023-02-19T08:45:56.629Z,100113.94
2023-02-19T08:48:56.550Z,100115.63
2023-02-19T08:51:56.565Z,100120.00
2023-02-19T08:54:56.548Z,100121.03
2023-02-19T08:57:56.608Z,100125.91
2023-02-19T09:00:56.572Z,100124.34
2023-02-19T09:03:56.599Z,100132.25
2023-02-19T09:06:56.580Z,100136.81
2023-02-19T09:09:56.589Z,100130.09
2023-02-19T09:12:56.590Z,100129.56
2023-02-19T09:15:56.579Z,100129.09
2023-02-19T09:18:56.559Z,100128.44
2023-02-19T09:21:56.546Z,100133.53
2023-02-19T09:24:57.542Z,100133.94
2023-02-19T09:27:57.585Z,100123.66
2023-02-19T09:30:57.629Z,100129.66
2023-02-19T09:33:58.555Z,100122.28
2023-02-19T09:36:58.566Z,100117.41
2023-02-19T09:39:58.586Z,100106.94
2023-02-19T09:42:59.779Z,100116.16
2023-02-19T09:46:01.653Z,100120.41
2023-02-19T09:49:01.567Z,100115.75
2023-02-19T09:52:06.562Z,100113.72
2023-02-19T09:55:06.531Z,100078.91
2023-02-19T09:58:06.555Z,100102.69
2023-02-19T10:01:08.709Z,100081.28
2023-02-19T10:04:08.601Z,100085.34
2023-02-19T10:07:10.585Z,100063.34
2023-02-19T10:10:33.556Z,100084.19
2023-02-19T10:13:41.555Z,100071.16
2023-02-19T10:16:41.610Z,100080.00
2023-02-19T10:19:41.560Z,100080.22
2023-02-19T10:22:41.599Z,100056.06
2023-02-19T10:25:41.564Z,100058.38
2023-02-19T10:28:47.578Z,100059.12
2023-02-19T10:31:47.642Z,100058.81
2023-02-19T10:34:47.535Z,100056.81
2023-02-19T10:37:47.543Z,100062.59
2023-02-19T10:40:47.580Z,100070.75
2023-02-19T10:43:51.554Z,100069.25
2023-02-19T10:46:57.556Z,100058.91
2023-02-19T10:49:57.575Z,100056.06
2023-02-19T10:52:57.571Z,100040.44
2023-02-19T10:55:57.567Z,100041.31
2023-02-19T10:58:57.574Z,100022.34
2023-02-19T11:02:10.607Z,100028.34
2023-02-19T11:05:22.549Z,100029.34
2023-02-19T11:08:34.565Z,100034.66
2023-02-19T11:11:40.569Z,100035.75
2023-02-19T11:14:40.628Z,100030.91
2023-02-19T11:17:43.557Z,100034.59
2023-02-19T11:20:43.549Z,100027.37
2023-02-19T11:23:45.575Z,100019.03
2023-02-19T11:26:46.544Z,100012.91
2023-02-19T11:29:46.837Z,100007.56
2023-02-19T11:32:46.575Z,99996.16
2023-02-19T11:35:46.591Z,100005.78
2023-02-19T11:38:46.576Z,99995.34
2023-02-19T11:41:55.595Z,99982.66
2023-02-19T11:45:04.607Z,99981.62
2023-02-19T11:48:30.311Z,99981.97
2023-02-19T11:51:39.555Z,99974.28
2023-02-19T11:54:39.569Z,99980.34
2023-02-19T11:58:01.584Z,99974.94
2023-02-19T12:01:48.594Z,99962.97
2023-02-19T12:05:09.551Z,99966.78
2023-02-19T12:08:14.578Z,99959.56
2023-02-19T12:11:37.602Z,99963.72
2023-02-19T12:14:49.595Z,99960.59
2023-02-19T12:18:04.612Z,99979.06
2023-02-19T12:21:16.574Z,99974.59
2023-02-19T12:25:10.590Z,99956.03
2023-02-19T12:28:20.544Z,99941.41
2023-02-19T12:31:42.602Z,99928.25
2023-02-19T12:34:50.600Z,99922.56
2023-02-19T12:38:12.540Z,99934.34
2023-02-19T12:41:36.596Z,99926.72
2023-02-19T12:44:41.589Z,99926.13
2023-02-19T12:47:46.583Z,99912.69
2023-02-19T12:50:48.592Z,99896.81
2023-02-19T12:53:55.573Z,99894.13
2023-02-19T12:57:17.543Z,99887.59
2023-02-19T13:00:51.593Z,99875.97
2023-02-19T13:04:00.592Z,99863.53
2023-02-19T13:07:06.575Z,99872.44
2023-02-19T13:10:24.618Z,99859.72
2023-02-19T13:13:29.605Z,99856.00
2023-02-19T13:16:30.628Z,99823.34
2023-02-19T13:19:30.587Z,99852.16
2023-02-19T13:23:06.564Z,99856.63
2023-02-19T13:26:21.578Z,99865.88
2023-02-19T13:29:45.578Z,99865.47
2023-02-19T13:33:23.586Z,99852.44
2023-02-19T13:36:30.564Z,99837.50
2023-02-19T13:39:33.581Z,99858.13
2023-02-19T13:42:44.575Z,99849.94
2023-02-19T13:45:56.636Z,99851.16
2023-02-19T13:48:56.665Z,99849.53
2023-02-19T13:52:01.618Z,99828.47
2023-02-19T13:55:01.565Z,99846.47
2023-02-19T13:58:01.601Z,99843.44
2023-02-19T14:01:09.965Z,99838.44
2023-02-19T14:04:23.567Z,99839.44
2023-02-19T14:07:23.589Z,99831.69
2023-02-19T14:10:26.574Z,99842.31
2023-02-19T14:14:01.621Z,99843.03
2023-02-19T14:17:01.573Z,99836.34
2023-02-19T14:20:15.606Z,99839.81
2023-02-19T14:23:27.798Z,99833.87
2023-02-19T14:26:28.611Z,99830.53
2023-02-19T14:29:28.601Z,99836.34
2023-02-19T14:32:33.577Z,99822.53
2023-02-19T14:35:35.565Z,99824.22
2023-02-19T14:38:49.589Z,99832.09
2023-02-19T14:41:51.591Z,99839.44
2023-02-19T14:45:00.607Z,99844.97
2023-02-19T14:48:00.560Z,99842.22
2023-02-19T14:51:02.574Z,99836.94
2023-02-19T14:54:02.563Z,99853.84
2023-02-19T14:57:04.590Z,99861.56
2023-02-19T15:00:14.028Z,99868.78
2023-02-19T15:03:13.595Z,99863.66
2023-02-19T15:06:17.595Z,99859.78
2023-02-19T15:09:19.618Z,99857.44
2023-02-19T15:12:19.559Z,99854.41
2023-02-19T15:15:19.631Z,99852.31
2023-02-19T15:18:19.607Z,99855.38
2023-02-19T15:21:19.634Z,99889.56
2023-02-19T15:24:20.587Z,99911.59
2023-02-19T15:27:20.626Z,99916.28
2023-02-19T15:30:32.677Z,99927.75
2023-02-19T15:33:35.571Z,99934.91
2023-02-19T15:36:42.586Z,99939.91
2023-02-19T15:39:51.579Z,99937.31
2023-02-19T15:42:51.591Z,99944.59
2023-02-19T15:45:54.570Z,99945.91
2023-02-19T15:48:59.622Z,99937.88
2023-02-19T15:52:05.558Z,99935.25
2023-02-19T15:55:05.593Z,99932.53
2023-02-19T15:58:15.596Z,99942.22
2023-02-19T16:01:18.630Z,99944.97
2023-02-19T16:04:25.577Z,99940.63
2023-02-19T16:07:38.613Z,99937.75
2023-02-19T16:10:39.589Z,99948.06
2023-02-19T16:13:44.546Z,99957.22
2023-02-19T16:16:49.568Z,99970.59
2023-02-19T16:20:10.606Z,99990.09
2023-02-19T16:23:13.612Z,100000.13
2023-02-19T16:26:15.574Z,100011.66
2023-02-19T16:29:15.617Z,100021.69
2023-02-19T16:32:17.683Z,100034.88
2023-02-19T16:35:17.632Z,100057.91
2023-02-19T16:38:26.596Z,100064.78
2023-02-19T16:41:26.643Z,100068.16
2023-02-19T16:44:34.573Z,100062.94
2023-02-19T16:47:41.672Z,100069.16
2023-02-19T16:50:41.617Z,100076.50
2023-02-19T16:53:41.628Z,100085.53
2023-02-19T16:56:41.574Z,100097.63
2023-02-19T16:59:41.590Z,100103.06
2023-02-19T17:02:41.564Z,100106.84
2023-02-19T17:05:42.623Z,100126.41
2023-02-19T17:08:48.622Z,100142.28
2023-02-19T17:11:49.612Z,100163.25
2023-02-19T17:14:49.627Z,100174.56
2023-02-19T17:17:49.590Z,100187.00
2023-02-19T17:20:49.582Z,100179.06
2023-02-19T17:23:49.574Z,100182.19
2023-02-19T17:26:49.617Z,100188.53
2023-02-19T17:29:49.574Z,100195.41
2023-02-19T17:32:49.635Z,100204.59
2023-02-19T17:35:51.608Z,100201.00
2023-02-19T17:38:51.587Z,100220.81
2023-02-19T17:41:51.604Z,100224.28
2023-02-19T17:44:52.604Z,100219.22
2023-02-19T17:47:52.593Z,100230.03
2023-02-19T17:50:52.560Z,100235.44
2023-02-19T17:53:52.580Z,100243.66
2023-02-19T17:56:53.574Z,100225.50
2023-02-19T17:59:53.597Z,100249.34
2023-02-19T18:02:53.623Z,100268.75
2023-02-19T18:05:53.572Z,100273.78
2023-02-19T18:08:53.582Z,100291.19
2023-02-19T18:11:53.636Z,100288.44
2023-02-19T18:14:53.607Z,100296.28
2023-02-19T18:17:53.623Z,100299.78
2023-02-19T18:20:53.609Z,100301.84
2023-02-19T18:23:53.605Z,100306.09
2023-02-19T18:26:53.616Z,100320.41
2023-02-19T18:29:53.743Z,100328.03
2023-02-19T18:32:54.581Z,100330.97
2023-02-19T18:35:55.623Z,100332.37
2023-02-19T18:38:55.616Z,100331.78
2023-02-19T18:42:00.567Z,100331.31
2023-02-19T18:45:01.599Z,100344.81
2023-02-19T18:48:02.597Z,100359.00
2023-02-19T18:51:02.622Z,100357.06
2023-02-19T18:54:02.609Z,100358.09
2023-02-19T18:57:02.572Z,100384.38
2023-02-19T19:00:02.581Z,100394.16
2023-02-19T19:03:02.583Z,100406.37
2023-02-19T19:06:02.592Z,100417.91
2023-02-19T19:09:02.599Z,100422.25
2023-02-19T19:12:02.582Z,100437.37
2023-02-19T19:15:02.609Z,100453.94
2023-02-19T19:18:02.565Z,100463.41
2023-02-19T19:21:08.613Z,100478.13
2023-02-19T19:24:08.620Z,100487.75
2023-02-19T19:27:08.574Z,100472.25
2023-02-19T19:30:08.722Z,100486.38
2023-02-19T19:33:09.573Z,100490.72
2023-02-19T19:36:09.604Z,100506.19
2023-02-19T19:39:09.582Z,100509.66
2023-02-19T19:42:10.559Z,100513.81
2023-02-19T19:45:10.633Z,100514.84
2023-02-19T19:48:10.555Z,100535.75
2023-02-19T19:51:10.918Z,100533.22
2023-02-19T19:54:10.603Z,100542.06
2023-02-19T19:57:10.588Z,100537.00
2023-02-19T20:00:10.566Z,100549.34
2023-02-19T20:03:10.590Z,100545.09
2023-02-19T20:06:10.571Z,100549.56
2023-02-19T20:09:10.609Z,100560.94
2023-02-19T20:12:10.604Z,100558.47
2023-02-19T20:15:10.603Z,100576.81
2023-02-19T20:18:13.621Z,100575.28
2023-02-19T20:21:13.917Z,100572.06
2023-02-19T20:24:13.574Z,100588.59
2023-02-19T20:27:14.568Z,100584.62
2023-02-19T20:30:14.692Z,100599.09
2023-02-19T20:33:14.596Z,100607.78
2023-02-19T20:36:14.586Z,100600.91
2023-02-19T20:39:14.568Z,100608.03
2023-02-19T20:42:16.519Z,100607.91
2023-02-19T20:45:16.601Z,100598.97
2023-02-19T20:48:16.604Z,100604.72
2023-02-19T20:51:16.585Z,100610.19
2023-02-19T20:54:16.583Z,100618.09
2023-02-19T20:57:18.615Z,100632.94
2023-02-19T21:00:20.655Z,100634.63
2023-02-19T21:03:20.553Z,100626.84
2023-02-19T21:06:20.628Z,100639.00
2023-02-19T21:09:20.632Z,100646.03
2023-02-19T21:12:20.625Z,100643.31
2023-02-19T21:15:21.588Z,100645.91
2023-02-19T21:18:22.606Z,100633.84
2023-02-19T21:21:22.574Z,100638.84
2023-02-19T21:24:22.627Z,100638.84
2023-02-19T21:27:22.586Z,100629.69
2023-02-19T21:30:23.616Z,100648.62
2023-02-19T21:33:23.577Z,100656.28
2023-02-19T21:36:23.565Z,100672.69
2023-02-19T21:39:26.605Z,100669.03
2023-02-19T21:42:26.606Z,100676.00
2023-02-19T21:45:26.581Z,100674.34
2023-02-19T21:48:26.631Z,100685.66
2023-02-19T21:51:26.587Z,100687.28
2023-02-19T21:54:30.614Z,100694.31
2023-02-19T21:57:30.552Z,100697.75
2023-02-19T22:00:30.646Z,100708.19
2023-02-19T22:03:30.540Z,100698.31
2023-02-19T22:06:30.596Z,100717.84
2023-02-19T22:09:23.599Z,100728.34
2023-02-19T22:12:09.596Z,100733.53
2023-02-19T22:15:09.606Z,100732.75
2023-02-19T22:18:09.548Z,100730.16
2023-02-19T22:21:09.568Z,100750.91
2023-02-19T22:24:09.553Z,100755.94
2023-02-19T22:27:10.608Z,100773.19
2023-02-19T22:30:10.587Z,100780.22
2023-02-19T22:33:10.562Z,100775.06
2023-02-19T22:36:10.850Z,100783.56
2023-02-19T22:39:10.573Z,100788.88
2023-02-19T22:42:10.557Z,100793.31
2023-02-19T22:45:10.563Z,100803.84
2023-02-19T22:48:11.664Z,100810.09
2023-02-19T22:51:12.604Z,100815.28
2023-02-19T22:54:12.568Z,100836.03
2023-02-19T22:57:12.560Z,100832.03
2023-02-19T23:00:12.547Z,100836.47
2023-02-19T23:03:12.569Z,100842.66
2023-02-19T23:06:12.867Z,100843.63
2023-02-19T23:09:15.604Z,100852.25
2023-02-19T23:12:19.573Z,100854.94
2023-02-19T23:15:20.581Z,100840.87
2023-02-19T23:18:20.584Z,100851.44
2023-02-19T23:21:20.599Z,100831.38
2023-02-19T23:24:20.604Z,100843.59
2023-02-19T23:27:20.605Z,100858.81
2023-02-19T23:30:20.621Z,100858.94
2023-02-19T23:33:20.568Z,100858.06
2023-02-19T23:36:20.588Z,100858.41
2023-02-19T23:39:20.591Z,100866.84
2023-02-19T23:42:20.577Z,100870.34
2023-02-19T23:45:20.565Z,100872.66
2023-02-19T23:48:13.593Z,100882.19
2023-02-19T23:50:59.569Z,100896.62
2023-02-19T23:53:59.581Z,100882.19
2023-02-19T23:56:59.563Z,100904.09
2023-02-19T23:59:59.555Z,100914.44
